Time;durP1;ratioP1;P1;durP2;ratioP2;P2;SDS_P1;SDS_P2;PMS_P1;PMS_P2;Temp;Humidity;BMP_temperature;BMP_pressure;BME280_temperature;BME280_humidity;BME280_pressure;Samples;Min_cycle;Max_cycle;Signal;HPM_P1;HPM_P2
2021/10/09 00:01:34;;;;;;;;;30.00;27.00;;;;;14.10;83.04;102228.41;5080227;27;45258;-63
2021/10/09 00:03:59;;;;;;;;;26.50;23.00;;;;;14.10;83.19;102231.91;5080541;27;46106;-64
2021/10/09 00:06:24;;;;;;;;;33.50;28.75;;;;;14.05;82.88;102228.50;5079774;28;45342;-64
2021/10/09 00:08:50;;;;;;;;;26.75;23.25;;;;;14.03;83.33;102234.66;5080784;27;45386;-64
2021/10/09 00:11:33;;;;;;;;;37.75;28.75;;;;;13.99;82.25;102237.31;5073240;27;45559;-64
2021/10/09 00:13:58;;;;;;;;;30.25;25.25;;;;;13.96;83.08;102228.66;5080673;27;45292;-67
2021/10/09 00:16:24;;;;;;;;;26.75;21.00;;;;;13.92;82.98;102227.84;5080672;27;45212;-65
2021/10/09 00:18:49;;;;;;;;;30.50;28.00;;;;;13.93;83.69;102228.72;5080291;27;46426;-66
2021/10/09 00:21:14;;;;;;;;;31.25;24.25;;;;;13.91;83.68;102236.59;5080790;27;44799;-66
2021/10/09 00:23:40;;;;;;;;;28.75;26.00;;;;;13.89;83.70;102234.88;5080634;27;45367;-64
2021/10/09 00:26:05;;;;;;;;;26.00;22.50;;;;;13.86;83.86;102221.88;5080740;27;45267;-66
2021/10/09 00:28:30;;;;;;;;;28.25;19.50;;;;;13.85;83.70;102222.78;5080677;27;45296;-65
2021/10/09 00:30:56;;;;;;;;;33.75;25.25;;;;;13.85;83.90;102234.09;5079193;28;45390;-65
2021/10/09 00:33:21;;;;;;;;;27.25;21.50;;;;;13.83;83.63;102228.03;5080157;27;45548;-65
2021/10/09 00:35:47;;;;;;;;;28.50;25.25;;;;;13.81;83.50;102232.38;5080592;27;45207;-66
2021/10/09 00:38:12;;;;;;;;;29.50;26.25;;;;;13.78;84.00;102231.59;5080793;27;45478;-66
2021/10/09 00:40:37;;;;;;;;;33.25;27.00;;;;;13.74;84.31;102220.31;5080559;27;45403;-67
2021/10/09 00:43:03;;;;;;;;;32.00;27.25;;;;;13.73;84.29;102222.97;5074578;27;45962;-65
2021/10/09 00:45:28;;;;;;;;;26.25;24.75;;;;;13.68;84.37;102225.66;5077610;27;45480;-66
2021/10/09 00:47:53;;;;;;;;;28.75;22.50;;;;;13.68;84.64;102223.06;5080037;27;45383;-65
2021/10/09 00:50:19;;;;;;;;;34.00;25.50;;;;;13.65;84.62;102217.88;5080290;27;45588;-64
2021/10/09 00:52:47;;;;;;;;;32.25;27.75;;;;;13.64;85.52;102217.03;5080222;27;46192;-64
2021/10/09 00:55:13;;;;;;;;;32.50;29.50;;;;;13.61;84.59;102219.66;5080146;27;45234;-63
2021/10/09 00:57:40;;;;;;;;;32.25;22.00;;;;;13.58;84.44;102211.88;5079474;27;45228;-63
2021/10/09 01:00:08;;;;;;;;;30.25;25.75;;;;;13.60;84.77;102217.94;5080401;27;45523;-64
2021/10/09 01:02:38;;;;;;;;;30.50;26.50;;;;;13.57;85.28;102214.50;5077767;28;46428;-63
2021/10/09 01:05:05;;;;;;;;;32.00;27.00;;;;;13.54;84.33;102206.72;5080031;27;45305;-64
2021/10/09 01:07:31;;;;;;;;;30.50;28.00;;;;;13.53;84.53;102225.91;5079550;27;45460;-65
2021/10/09 01:09:56;;;;;;;;;29.75;22.75;;;;;13.51;84.79;102214.63;5077691;27;45467;-65
2021/10/09 01:12:22;;;;;;;;;31.00;24.00;;;;;13.52;84.80;102218.97;5077189;27;45501;-65
2021/10/09 01:14:47;;;;;;;;;35.75;26.75;;;;;13.51;84.86;102212.88;5077571;27;45453;-65
2021/10/09 01:17:14;;;;;;;;;31.50;26.00;;;;;13.50;85.00;102221.59;5077280;27;45492;-66
2021/10/09 01:19:40;;;;;;;;;29.75;25.75;;;;;13.47;85.60;102218.19;5077307;27;45539;-65
2021/10/09 01:22:06;;;;;;;;;32.00;30.00;;;;;13.42;85.26;102217.41;5077273;27;46400;-65
2021/10/09 01:24:31;;;;;;;;;36.75;28.75;;;;;13.42;85.16;102223.47;5077930;27;45454;-66
2021/10/09 01:26:57;;;;;;;;;34.00;27.25;;;;;13.36;84.82;102215.72;5077596;27;45474;-66
2021/10/09 01:29:22;;;;;;;;;32.75;31.00;;;;;13.38;85.14;102222.63;5077438;27;45357;-72
2021/10/09 01:31:48;;;;;;;;;32.00;26.50;;;;;13.36;85.43;102215.72;5077225;27;46195;-70
2021/10/09 01:34:18;;;;;;;;;29.75;25.50;;;;;13.35;85.40;102216.59;5077349;27;45322;-70
2021/10/09 01:36:43;;;;;;;;;28.50;24.00;;;;;13.34;85.75;102215.75;5077448;27;45450;-68
2021/10/09 01:39:10;;;;;;;;;31.50;26.25;;;;;13.32;85.39;102214.03;5076016;28;45385;-69
2021/10/09 01:41:41;;;;;;;;;31.75;26.00;;;;;13.32;85.29;102214.03;5077255;27;45460;-69
2021/10/09 01:44:07;;;;;;;;;29.50;26.75;;;;;13.32;85.60;102214.03;5073285;27;45471;-63
2021/10/09 01:46:32;;;;;;;;;27.00;25.25;;;;;13.30;85.71;102208.84;5078585;28;45457;-61
2021/10/09 01:48:58;;;;;;;;;31.75;26.00;;;;;13.29;85.23;102212.34;5079209;27;45264;-62
2021/10/09 01:51:26;;;;;;;;;30.25;22.50;;;;;13.28;86.04;102209.75;5079279;27;45386;-62
2021/10/09 01:53:51;;;;;;;;;31.00;25.75;;;;;13.26;85.81;102206.31;5079170;27;45417;-65
2021/10/09 01:56:16;;;;;;;;;30.50;26.25;;;;;13.26;86.16;102215.00;5074905;28;45289;-64
2021/10/09 01:58:42;;;;;;;;;27.75;23.25;;;;;13.23;85.76;102209.84;5074826;28;45385;-65
2021/10/09 02:01:07;;;;;;;;;31.00;26.75;;;;;13.24;85.97;102202.88;5079290;27;46275;-64
2021/10/09 02:03:33;;;;;;;;;24.75;23.25;;;;;13.19;85.91;102205.53;5079230;27;45300;-65
2021/10/09 02:05:58;;;;;;;;;28.75;25.75;;;;;13.18;85.38;102202.94;5079425;27;45892;-65
2021/10/09 02:08:23;;;;;;;;;27.00;20.75;;;;;13.16;86.27;102213.38;5079904;27;45239;-65
2021/10/09 02:10:57;;;;;;;;;30.75;22.75;;;;;13.15;86.70;102208.19;5082766;27;46258;-65
2021/10/09 02:13:28;;;;;;;;;28.25;24.75;;;;;13.08;85.88;102203.06;5079286;28;45258;-65
2021/10/09 02:19:07;;;;;;;;;31.00;25.50;;;;;13.07;86.18;102203.94;5075439;27;45278;-62
2021/10/09 02:27:05;;;;;;;;;29.75;23.25;;;;;13.08;86.20;102197.84;5062739;27;45385;-62
2021/10/09 02:29:30;;;;;;;;;33.75;28.25;;;;;13.09;85.97;102202.16;5082363;27;45260;-62
2021/10/09 02:31:57;;;;;;;;;36.75;28.00;;;;;13.09;86.15;102196.09;5082492;27;45924;-62
2021/10/09 02:34:22;;;;;;;;;28.50;25.75;;;;;13.07;86.21;102193.50;5082143;27;45742;-62
2021/10/09 02:36:48;;;;;;;;;35.50;29.75;;;;;13.07;86.72;102196.13;5082768;27;45326;-61
2021/10/09 02:39:13;;;;;;;;;36.00;28.25;;;;;13.07;87.00;102201.34;5082253;27;45462;-63
2021/10/09 02:41:39;;;;;;;;;36.00;31.00;;;;;13.03;87.24;102204.88;5080535;27;45234;-61
2021/10/09 02:44:05;;;;;;;;;31.00;26.25;;;;;13.02;87.84;102203.16;5075851;27;45207;-61
2021/10/09 02:46:30;;;;;;;;;34.75;28.75;;;;;12.96;86.63;102195.38;5080932;28;45363;-61
2021/10/09 02:48:56;;;;;;;;;34.50;28.00;;;;;12.94;87.08;102206.75;5081923;27;45227;-61
2021/10/09 02:51:21;;;;;;;;;30.50;26.25;;;;;12.89;87.22;102201.59;5081832;27;45243;-61
2021/10/09 02:53:46;;;;;;;;;40.25;31.75;;;;;12.86;86.99;102203.38;5081887;27;45428;-61
2021/10/09 02:56:11;;;;;;;;;32.75;30.25;;;;;12.82;86.54;102199.97;5082290;27;45393;-61
2021/10/09 02:58:37;;;;;;;;;37.75;33.50;;;;;12.74;87.06;102186.13;5082170;27;45621;-61
2021/10/09 03:01:02;;;;;;;;;41.50;35.00;;;;;12.77;86.82;102197.38;5081796;27;45356;-64
2021/10/09 03:03:28;;;;;;;;;35.75;30.25;;;;;12.73;87.38;102200.94;5081790;27;45595;-64
2021/10/09 03:05:53;;;;;;;;;35.75;28.00;;;;;12.70;87.23;102195.75;5080673;27;45505;-63
2021/10/09 03:08:19;;;;;;;;;37.75;34.50;;;;;12.69;87.39;102199.25;5081798;27;45403;-64
2021/10/09 03:10:44;;;;;;;;;37.00;31.75;;;;;12.70;87.63;102200.97;5081735;27;47330;-64
2021/10/09 03:13:10;;;;;;;;;36.00;31.00;;;;;12.69;87.21;102199.25;5081339;27;45278;-64
2021/10/09 03:15:35;;;;;;;;;46.00;36.75;;;;;12.64;87.75;102190.63;5081904;27;45384;-64
2021/10/09 03:18:01;;;;;;;;;39.75;33.50;;;;;12.64;88.03;102194.97;5081129;27;45243;-63
2021/10/09 03:20:26;;;;;;;;;46.75;36.25;;;;;12.63;88.61;102198.47;5081077;27;46089;-62
2021/10/09 03:22:51;;;;;;;;;36.75;33.25;;;;;12.61;87.90;102198.47;5081497;27;45350;-61
2021/10/09 03:25:17;;;;;;;;;34.50;28.75;;;;;12.62;88.34;102201.97;5081772;27;45297;-62
2021/10/09 03:27:43;;;;;;;;;40.50;30.25;;;;;12.61;88.37;102200.19;5081640;27;45329;-62
2021/10/09 03:30:09;;;;;;;;;42.75;37.00;;;;;12.61;88.18;102197.59;5081192;28;46432;-62
2021/10/09 03:32:34;;;;;;;;;42.50;34.50;;;;;12.60;88.35;102193.25;5081531;27;45724;-62
2021/10/09 03:35:00;;;;;;;;;38.75;33.50;;;;;12.61;88.20;102192.38;5081370;27;45449;-62
2021/10/09 03:37:26;;;;;;;;;48.75;36.00;;;;;12.58;88.70;102195.03;5081573;27;45269;-63
2021/10/09 03:39:53;;;;;;;;;39.75;34.50;;;;;12.55;88.15;102197.69;5081240;27;46982;-63
2021/10/09 03:42:28;;;;;;;;;46.25;35.50;;;;;12.55;87.86;102197.69;5077851;27;46021;-63
2021/10/09 03:45:01;;;;;;;;;44.75;34.75;;;;;12.54;88.53;102193.34;5077226;28;45302;-63
2021/10/09 03:52:21;;;;;;;;;51.25;36.50;;;;;12.54;88.44;102194.22;5080972;27;45271;-62
2021/10/09 03:52:54;;;;;;;;;43.00;34.50;;;;;12.55;88.55;102193.34;5080795;28;45808;-63
2021/10/09 03:55:20;;;;;;;;;42.75;34.50;;;;;12.57;88.29;102195.91;5080913;27;45285;-61
2021/10/09 03:57:46;;;;;;;;;44.25;33.75;;;;;12.55;88.56;102189.84;5081082;27;45227;-62
2021/10/09 04:00:13;;;;;;;;;47.00;35.75;;;;;12.53;88.05;102186.41;5080937;27;46254;-62
2021/10/09 04:02:39;;;;;;;;;42.00;35.50;;;;;12.52;88.11;102200.34;5080486;27;45301;-62
2021/10/09 04:05:05;;;;;;;;;44.50;37.00;;;;;12.48;88.73;102205.59;5079895;28;45279;-62
2021/10/09 04:07:30;;;;;;;;;41.50;34.50;;;;;12.46;88.68;102201.28;5080816;27;45556;-62
2021/10/09 04:09:56;;;;;;;;;48.75;36.00;;;;;12.42;88.30;102189.16;5080866;27;46086;-61
2021/10/09 04:12:21;;;;;;;;;42.50;36.50;;;;;12.40;88.47;102191.75;5080515;27;45255;-62
2021/10/09 04:14:47;;;;;;;;;45.75;36.25;;;;;12.38;88.60;102187.44;5081011;27;45316;-62
2021/10/09 04:17:12;;;;;;;;;43.75;36.25;;;;;12.38;88.67;102196.13;5080485;27;45247;-63
2021/10/09 04:19:38;;;;;;;;;43.75;34.75;;;;;12.38;88.45;102193.53;5080472;27;46551;-63
2021/10/09 04:22:04;;;;;;;;;46.75;36.50;;;;;12.39;88.48;102194.38;5080654;27;45254;-63
2021/10/09 04:24:30;;;;;;;;;47.25;36.50;;;;;12.38;88.44;102197.88;5080904;27;45426;-63
2021/10/09 04:26:56;;;;;;;;;52.25;38.50;;;;;12.37;88.66;102194.41;5080757;27;45444;-63
2021/10/09 04:29:21;;;;;;;;;45.25;37.25;;;;;12.37;88.62;102198.75;5080447;27;45363;-63
2021/10/09 04:31:48;;;;;;;;;46.00;36.25;;;;;12.34;88.70;102191.84;5079472;27;45215;-63
2021/10/09 04:34:13;;;;;;;;;52.75;37.50;;;;;12.34;88.30;102190.97;5080233;27;45336;-63
2021/10/09 04:36:39;;;;;;;;;38.25;34.75;;;;;12.32;88.59;102184.94;5080485;27;45462;-63
2021/10/09 04:39:04;;;;;;;;;40.25;34.00;;;;;12.27;88.77;102184.97;5080483;27;45291;-63
2021/10/09 04:41:29;;;;;;;;;32.50;32.50;;;;;12.25;88.47;102185.88;5078177;27;45375;-63
2021/10/09 04:43:55;;;;;;;;;45.25;34.75;;;;;12.21;88.49;102184.16;5075844;27;45718;-63
2021/10/09 04:46:21;;;;;;;;;47.50;38.25;;;;;12.19;88.95;102182.44;5077781;28;45593;-63
2021/10/09 04:48:46;;;;;;;;;44.50;37.00;;;;;12.18;88.78;102188.53;5069038;27;45320;-63
2021/10/09 04:51:11;;;;;;;;;47.75;36.25;;;;;12.18;89.05;102185.06;5077560;28;45493;-63
2021/10/09 04:53:37;;;;;;;;;44.50;36.75;;;;;12.15;89.70;102175.53;5080056;27;45313;-64
2021/10/09 04:56:02;;;;;;;;;47.50;37.75;;;;;12.11;89.41;102173.88;5080057;27;45239;-64
2021/10/09 04:58:28;;;;;;;;;50.75;38.00;;;;;12.08;89.98;102178.25;5078709;28;48467;-63
2021/10/09 05:00:53;;;;;;;;;44.00;35.50;;;;;12.06;89.43;102177.41;5079883;27;45351;-64
2021/10/09 05:03:18;;;;;;;;;45.75;36.50;;;;;12.06;89.44;102187.81;5079969;27;45231;-64
2021/10/09 05:05:44;;;;;;;;;40.00;37.00;;;;;12.04;89.54;102181.78;5079957;27;45474;-64
2021/10/09 05:08:09;;;;;;;;;43.50;36.25;;;;;12.02;89.01;102179.19;5079708;27;45945;-65
2021/10/09 05:10:36;;;;;;;;;42.75;36.00;;;;;12.01;89.56;102176.56;5079952;28;45230;-64
2021/10/09 05:13:02;;;;;;;;;35.50;31.50;;;;;11.99;89.28;102178.31;5079694;27;45223;-64
2021/10/09 05:15:27;;;;;;;;;43.25;34.75;;;;;11.95;90.81;102176.63;5078445;28;45340;-64
2021/10/09 05:17:52;;;;;;;;;47.75;38.00;;;;;11.93;89.44;102176.66;5068073;27;45482;-64
2021/10/09 05:20:18;;;;;;;;;44.00;36.50;;;;;11.93;89.73;102178.41;5077390;28;45476;-64
2021/10/09 05:22:44;;;;;;;;;50.25;37.50;;;;;11.90;90.06;102179.28;5079807;27;45323;-64
2021/10/09 05:25:10;;;;;;;;;47.50;36.50;;;;;11.87;90.01;102177.59;5079805;27;45365;-63
2021/10/09 05:27:36;;;;;;;;;40.75;32.75;;;;;11.84;90.24;102177.63;5079607;27;46948;-62
2021/10/09 05:30:08;;;;;;;;;44.75;37.00;;;;;11.85;90.21;102176.75;5079561;27;45468;-62
2021/10/09 05:32:36;;;;;;;;;46.25;38.25;;;;;11.83;90.15;102175.03;5079477;27;45375;-62
2021/10/09 05:35:03;;;;;;;;;48.75;37.25;;;;;11.79;90.24;102179.38;5079657;27;45790;-63
2021/10/09 05:37:31;;;;;;;;;52.00;38.50;;;;;11.77;90.32;102180.25;5079501;28;46332;-63
2021/10/09 05:39:57;;;;;;;;;49.00;38.50;;;;;11.75;90.39;102185.47;5079626;27;45606;-63
2021/10/09 05:42:22;;;;;;;;;49.00;37.75;;;;;11.73;89.76;102183.75;5074518;27;45439;-64
2021/10/09 05:44:50;;;;;;;;;50.50;37.00;;;;;11.72;89.75;102190.72;5077402;28;45318;-63
2021/10/09 05:47:15;;;;;;;;;48.25;38.00;;;;;11.67;89.98;102192.50;5082851;27;46155;-63
2021/10/09 05:49:40;;;;;;;;;50.00;36.00;;;;;11.66;90.20;102188.19;5082788;27;45476;-63
2021/10/09 05:52:15;;;;;;;;;43.75;34.75;;;;;11.63;91.83;102187.34;5082751;27;45248;-64
2021/10/09 05:55:07;;;;;;;;;45.25;36.25;;;;;11.59;91.35;102189.94;5082545;27;45286;-62
2021/10/09 05:57:37;;;;;;;;;37.50;26.50;;;;;11.58;91.20;102197.78;5082691;27;46877;-61
2021/10/09 06:43:38;;;;;;;;;45.50;37.00;;;;;11.74;91.47;102238.44;5079800;28;45287;-64
2021/10/09 06:46:20;;;;;;;;;47.25;37.75;;;;;11.84;90.86;102241.88;5075365;27;45253;-60
2021/10/09 06:59:38;;;;;;;;;56.75;41.00;;;;;12.05;90.73;102254.72;5081922;28;45377;-59
2021/10/09 07:02:05;;;;;;;;;40.25;34.50;;;;;12.08;90.59;102256.41;5081422;27;46202;-66
2021/10/09 07:04:31;;;;;;;;;48.75;38.25;;;;;12.09;90.89;102247.72;5078914;27;45652;-71
2021/10/09 07:06:58;;;;;;;;;48.00;38.00;;;;;12.18;91.06;102268.47;5081095;27;45268;-62
2021/10/09 07:09:23;;;;;;;;;50.50;35.75;;;;;12.21;90.67;102268.44;5080404;27;45255;-62
2021/10/09 07:11:48;;;;;;;;;42.00;35.50;;;;;12.30;90.04;102270.09;5077401;27;46203;-67
2021/10/09 07:14:14;;;;;;;;;44.00;37.25;;;;;12.36;89.51;102268.28;5079483;28;45415;-66
2021/10/09 07:16:39;;;;;;;;;45.25;38.00;;;;;12.44;89.97;102276.06;5080229;27;45419;-68
2021/10/09 07:19:05;;;;;;;;;54.25;38.50;;;;;12.48;89.15;102270.78;5079002;27;45361;-62
2021/10/09 07:21:30;;;;;;;;;55.50;37.25;;;;;12.54;89.14;102272.44;5078849;27;46142;-63
2021/10/09 07:23:55;;;;;;;;;50.50;37.25;;;;;12.58;88.99;102268.91;5079565;27;45370;-63
2021/10/09 07:26:21;;;;;;;;;46.50;37.25;;;;;12.65;88.79;102281.03;5081271;27;45882;-62
2021/10/09 07:28:46;;;;;;;;;52.75;40.25;;;;;12.68;88.47;102273.16;5085428;27;45270;-62
2021/10/09 07:31:12;;;;;;;;;51.25;40.75;;;;;12.79;88.39;102284.31;5089848;27;45258;-69
2021/10/09 07:33:37;;;;;;;;;50.25;36.25;;;;;12.87;88.14;102286.84;5087879;27;46399;-60
2021/10/09 07:36:03;;;;;;;;;42.00;36.75;;;;;12.92;88.18;102292.88;5086082;27;45426;-59
2021/10/09 07:38:28;;;;;;;;;44.50;38.00;;;;;12.94;87.76;102293.72;5085676;27;45478;-59
2021/10/09 07:43:46;;;;;;;;;48.50;39.50;;;;;13.04;87.01;102289.25;5729190;22;46560;31
2021/10/09 07:49:01;;;;;;;;;50.75;36.00;;;;;13.09;86.70;102287.44;5001847;23;45668;-57
2021/10/09 07:51:26;;;;;;;;;50.00;37.25;;;;;13.08;86.42;102286.56;4999132;28;45590;-68
2021/10/09 07:53:51;;;;;;;;;49.75;38.00;;;;;13.15;86.51;102296.94;4998302;28;45450;-60
2021/10/09 07:56:17;;;;;;;;;46.75;37.25;;;;;13.18;86.53;102297.78;4990494;28;45249;-55
2021/10/09 08:01:17;;;;;;;;;42.75;34.00;;;;;13.23;86.48;102306.44;5276423;22;46146;-52
2021/10/09 08:03:44;;;;;;;;;48.50;40.50;;;;;13.31;86.12;102308.94;4975697;28;45592;-54
2021/10/09 08:06:10;;;;;;;;;46.75;39.00;;;;;13.39;85.82;102314.91;4985618;28;45396;-57
2021/10/09 08:08:35;;;;;;;;;48.75;40.50;;;;;13.42;85.60;102307.06;4961632;28;46361;-55
2021/10/09 08:11:01;;;;;;;;;49.25;36.00;;;;;13.48;85.33;102306.94;4981615;28;46194;-56
2021/10/09 08:13:26;;;;;;;;;55.25;40.50;;;;;13.56;85.54;102315.53;4969830;28;45290;-60
2021/10/09 08:15:51;;;;;;;;;47.25;34.50;;;;;13.65;84.86;102312.78;4968176;28;45508;-57
2021/10/09 08:18:17;;;;;;;;;49.50;39.50;;;;;13.75;84.85;102315.25;4976377;28;45444;-56
2021/10/09 08:20:44;;;;;;;;;49.00;36.00;;;;;13.80;84.39;102313.44;4979771;28;45413;-56
2021/10/09 08:23:14;;;;;;;;;47.25;36.25;;;;;13.83;83.98;102318.63;4978516;28;45345;-57
2021/10/09 08:26:00;;;;;;;;;53.25;38.25;;;;;13.88;84.11;102322.03;4978767;28;45431;-57
2021/10/09 08:36:36;;;;;;;;;44.00;33.00;;;;;14.14;83.21;102322.44;4979335;28;45435;-56
2021/10/09 08:39:03;;;;;;;;;40.75;34.75;;;;;14.17;82.92;102317.16;4979837;28;45503;-56
2021/10/09 08:41:29;;;;;;;;;49.00;39.00;;;;;14.23;82.64;102311.84;4979609;28;47272;-56
2021/10/09 08:43:55;;;;;;;;;45.00;35.50;;;;;14.35;82.12;102302.91;4970209;28;45286;-56
2021/10/09 08:46:20;;;;;;;;;52.25;39.00;;;;;14.40;82.35;102314.13;4976706;28;45479;-56
2021/10/09 08:48:48;;;;;;;;;50.50;38.00;;;;;14.44;81.61;102307.16;4964805;28;45460;-56
2021/10/09 08:51:27;;;;;;;;;51.75;36.25;;;;;14.50;81.03;102312.25;4976776;28;46172;-56
2021/10/09 08:53:54;;;;;;;;;49.75;35.50;;;;;14.56;81.44;102304.28;4973550;28;45392;-56
2021/10/09 08:56:29;;;;;;;;;50.25;38.00;;;;;14.60;81.00;102303.34;4967925;28;45369;-56
2021/10/09 08:59:27;;;;;;;;;48.25;37.75;;;;;14.69;80.77;102302.31;4965893;28;45338;-55
2021/10/09 09:02:14;;;;;;;;;51.25;35.50;;;;;14.74;80.36;102300.47;4974698;28;46543;-55
2021/10/09 09:40:03;;;;;;;;;54.50;38.00;;;;;15.87;76.43;102305.84;4979646;28;45274;-56
2021/10/09 09:42:29;;;;;;;;;48.00;35.50;;;;;15.97;76.88;102302.94;4975907;28;45416;-56
2021/10/09 09:45:00;;;;;;;;;44.75;36.50;;;;;16.02;75.89;102295.00;4978413;28;46224;-56
2021/10/09 09:47:34;;;;;;;;;44.50;34.50;;;;;16.09;75.46;102294.78;4977267;28;45322;-57
2021/10/09 09:50:01;;;;;;;;;44.25;34.75;;;;;16.22;75.37;102286.56;4979223;28;45392;-57
2021/10/09 09:52:27;;;;;;;;;47.00;37.50;;;;;16.78;76.21;102287.69;4978810;28;45234;-57
2021/10/09 09:54:55;;;;;;;;;49.50;36.25;;;;;17.49;73.49;102286.44;4975916;28;45259;-56
2021/10/09 09:57:20;;;;;;;;;44.50;34.50;;;;;17.60;71.03;102284.31;4978824;28;45417;-57
2021/10/09 09:59:49;;;;;;;;;48.25;39.75;;;;;17.56;69.33;102273.03;4978691;28;45175;-57
2021/10/09 10:02:18;;;;;;;;;46.00;36.50;;;;;17.73;72.30;102272.53;4970110;28;45380;-57
2021/10/09 10:04:44;;;;;;;;;43.25;35.00;;;;;18.79;72.33;102280.25;4978773;28;46269;-56
2021/10/09 10:07:10;;;;;;;;;47.50;37.25;;;;;19.97;65.13;102272.03;4970969;28;45309;-57
2021/10/09 10:09:36;;;;;;;;;53.50;38.00;;;;;19.95;59.59;102275.66;4975574;28;45259;-57
2021/10/09 10:12:06;;;;;;;;;49.00;38.25;;;;;19.62;62.96;102264.72;4978701;28;45260;-57
2021/10/09 10:14:33;;;;;;;;;47.25;37.50;;;;;19.75;64.96;102276.50;4978348;28;45374;-57
2021/10/09 10:16:59;;;;;;;;;42.50;33.25;;;;;20.88;64.05;102267.13;4978328;28;45191;-57
2021/10/09 10:19:49;;;;;;;;;47.75;37.25;;;;;20.85;58.77;102263.78;4978662;28;45152;-57
2021/10/09 10:22:15;;;;;;;;;48.25;37.50;;;;;20.29;62.07;102265.38;4978268;28;45509;-57
2021/10/09 10:24:49;;;;;;;;;40.75;34.25;;;;;19.86;61.66;102265.50;4961127;28;47581;-57
2021/10/09 10:27:37;;;;;;;;;44.25;36.25;;;;;19.80;59.53;102268.38;4978635;28;45359;-57
2021/10/09 10:30:14;;;;;;;;;42.75;33.75;;;;;19.96;63.08;102270.31;4978413;28;45372;-57
2021/10/09 10:33:00;;;;;;;;;46.25;34.50;;;;;20.21;58.74;102259.56;4982011;28;45215;-57
2021/10/09 10:35:31;;;;;;;;;34.75;32.00;;;;;21.12;59.14;102275.69;4981214;28;45588;-57
2021/10/09 10:38:22;;;;;;;;;43.50;35.00;;;;;21.95;58.51;102271.69;4982215;28;45865;-57
2021/10/09 10:40:50;;;;;;;;;39.25;30.50;;;;;21.66;57.40;102275.78;4942280;28;46600;-57
2021/10/09 10:43:41;;;;;;;;;33.75;28.00;;;;;21.17;56.89;102270.19;4981456;28;45626;-56
2021/10/09 10:46:24;;;;;;;;;34.75;31.75;;;;;22.10;59.15;102271.78;4981562;28;45531;-56
2021/10/09 10:49:25;;;;;;;;;34.00;29.00;;;;;22.13;55.70;102270.78;4981750;28;45754;-56
2021/10/09 10:59:45;;;;;;;;;28.00;25.75;;;;;21.39;53.17;102255.03;4978237;28;46813;-56
2021/10/09 11:02:13;;;;;;;;;33.50;30.25;;;;;22.06;50.57;102258.78;4981342;28;45297;-56
2021/10/09 11:04:46;;;;;;;;;34.75;26.75;;;;;21.59;53.99;102261.13;4981188;28;45386;-56
2021/10/09 11:07:12;;;;;;;;;34.00;31.00;;;;;21.03;54.41;102262.06;4971964;28;46281;-56
2021/10/09 11:09:39;;;;;;;;;31.75;28.00;;;;;20.63;53.83;102256.84;4978847;28;45709;-56
2021/10/09 11:12:19;;;;;;;;;34.00;27.25;;;;;20.19;55.23;102244.72;4981461;28;45305;-56
2021/10/09 11:14:44;;;;;;;;;27.25;23.75;;;;;19.82;54.00;102251.56;4980277;28;46140;-56
2021/10/09 11:17:10;;;;;;;;;31.50;25.00;;;;;19.52;54.80;102248.41;4981109;28;46143;-56
2021/10/09 11:19:50;;;;;;;;;33.75;29.75;;;;;19.37;55.85;102256.91;4981274;28;45700;-56
2021/10/09 11:22:18;;;;;;;;;27.00;22.00;;;;;19.22;56.89;102249.59;4981164;28;45320;-56
2021/10/09 11:24:49;;;;;;;;;32.25;25.50;;;;;19.10;57.15;102250.97;4976310;28;45384;-56
2021/10/09 11:27:16;;;;;;;;;32.75;25.75;;;;;19.04;57.30;102249.44;4971000;28;45691;-56
2021/10/09 11:29:59;;;;;;;;;29.00;23.25;;;;;19.06;57.05;102250.22;4974893;28;45584;-55
2021/10/09 11:32:30;;;;;;;;;30.25;27.25;;;;;19.12;57.61;102251.75;4980984;28;45212;-56
2021/10/09 11:34:55;;;;;;;;;25.00;23.75;;;;;19.12;57.99;102254.41;4980677;28;45520;-56
2021/10/09 11:37:21;;;;;;;;;30.50;26.25;;;;;19.04;55.33;102246.81;4981160;28;46314;-56
2021/10/09 11:39:56;;;;;;;;;30.75;25.00;;;;;19.00;57.57;102250.44;4980965;28;45373;-56
2021/10/09 11:42:26;;;;;;;;;28.00;24.00;;;;;18.90;57.53;102248.25;4971799;28;45397;-56
2021/10/09 11:45:37;;;;;;;;;29.25;26.50;;;;;18.81;57.73;102244.16;4975016;28;45218;-56
2021/10/09 11:56:23;;;;;;;;;25.50;24.00;;;;;18.90;57.89;102230.66;4979731;28;45599;-56
2021/10/09 11:58:52;;;;;;;;;21.00;16.50;;;;;18.85;57.91;102229.97;4979345;28;46010;-55
2021/10/09 12:01:33;;;;;;;;;23.75;21.00;;;;;18.81;57.30;102223.09;4978210;28;45799;-54
2021/10/09 12:04:14;;;;;;;;;27.50;24.50;;;;;18.81;56.53;102223.09;4970620;28;45871;-62
2021/10/09 12:06:53;;;;;;;;;21.75;18.75;;;;;18.84;56.62;102215.09;4978912;28;45539;-61
2021/10/09 12:09:32;;;;;;;;;19.50;17.25;;;;;18.84;57.81;102213.31;4979038;28;46108;-59
2021/10/09 12:12:12;;;;;;;;;22.50;22.00;;;;;18.85;56.68;102219.44;4978965;28;45453;-59
2021/10/09 12:14:38;;;;;;;;;21.00;20.25;;;;;18.90;56.57;102214.84;4977442;28;45374;-59
2021/10/09 12:17:03;;;;;;;;;22.00;17.00;;;;;18.87;57.26;102214.97;4979776;28;45280;-61
2021/10/09 12:19:30;;;;;;;;;28.00;21.25;;;;;18.85;56.12;102222.09;4978778;28;46290;-62
2021/10/09 12:22:01;;;;;;;;;22.50;20.50;;;;;18.86;57.27;102213.25;4979700;28;45469;-60
2021/10/09 12:24:29;;;;;;;;;19.50;19.50;;;;;18.86;56.19;102210.63;4978470;28;45314;-62
2021/10/09 12:27:02;;;;;;;;;34.00;26.00;;;;;18.95;56.45;102222.56;4979261;28;45258;-60
2021/10/09 12:29:28;;;;;;;;;28.00;23.75;;;;;18.93;56.57;102204.19;4972909;28;46214;-63
2021/10/09 12:31:53;;;;;;;;;26.00;23.50;;;;;18.92;55.78;102215.66;4968601;28;45438;-62
2021/10/09 12:34:28;;;;;;;;;20.25;19.75;;;;;18.95;55.36;102202.34;4978734;28;45448;-62
2021/10/09 12:37:14;;;;;;;;;22.25;20.50;;;;;19.03;55.96;102204.72;4979980;28;45354;-59
2021/10/09 12:39:40;;;;;;;;;23.75;21.00;;;;;19.05;56.33;102203.72;4978011;28;47501;-61
2021/10/09 12:42:06;;;;;;;;;28.25;24.75;;;;;19.05;56.80;102214.25;4980064;28;45386;-63
2021/10/09 12:44:31;;;;;;;;;24.50;23.75;;;;;19.03;56.51;102202.94;4978389;28;45338;-62
2021/10/09 12:46:57;;;;;;;;;22.25;18.25;;;;;19.04;56.11;102204.66;4979804;28;45326;-61
2021/10/09 12:49:22;;;;;;;;;25.50;24.25;;;;;19.03;56.19;102188.91;4979555;28;45314;-63
2021/10/09 12:51:48;;;;;;;;;26.50;24.25;;;;;19.10;56.58;102188.56;4979655;28;45373;-59
2021/10/09 12:54:17;;;;;;;;;29.25;23.00;;;;;19.18;54.70;102190.03;4978437;28;45223;-59
2021/10/09 12:56:43;;;;;;;;;22.25;22.25;;;;;19.23;56.72;102190.72;4978224;28;45435;-60
2021/10/09 12:59:08;;;;;;;;;26.00;23.75;;;;;19.29;56.52;102185.19;4980021;28;46349;-61
2021/10/09 13:01:34;;;;;;;;;27.00;25.00;;;;;19.32;55.78;102185.94;4973460;28;45336;-59
2021/10/09 13:03:59;;;;;;;;;26.00;21.25;;;;;19.30;55.04;102177.22;4972646;28;45298;-60
2021/10/09 13:06:24;;;;;;;;;27.75;25.25;;;;;19.35;56.36;102182.31;4972572;28;45353;-59
2021/10/09 13:08:50;;;;;;;;;23.75;21.00;;;;;19.38;56.15;102180.41;4974876;28;46363;-60
2021/10/09 13:11:21;;;;;;;;;25.00;18.75;;;;;19.39;54.88;102191.78;4971620;28;45490;-59
2021/10/09 13:13:46;;;;;;;;;26.50;22.00;;;;;19.40;54.36;102175.06;4965010;28;45405;-60
2021/10/09 13:16:12;;;;;;;;;21.25;20.00;;;;;19.43;54.64;102174.97;4977171;28;45569;-60
2021/10/09 13:18:37;;;;;;;;;27.75;21.75;;;;;19.45;55.01;102173.97;4979538;28;45994;-57
2021/10/09 13:21:03;;;;;;;;;21.50;18.00;;;;;19.51;54.49;102183.41;4958591;28;45325;-58
2021/10/09 13:23:31;;;;;;;;;20.75;19.00;;;;;19.44;53.80;102182.81;4965968;28;45480;-60
2021/10/09 13:25:58;;;;;;;;;22.50;19.75;;;;;19.33;53.79;102181.50;4971727;28;45469;-58
2021/10/09 13:28:23;;;;;;;;;22.25;21.50;;;;;19.31;54.75;102178.94;4965495;28;46169;-59